createdAt,value
2024-03-12T00:01:27.864Z,2.33
2024-03-12T00:03:56.143Z,3.40
2024-03-12T00:06:23.742Z,3.50
2024-03-12T00:11:17.530Z,4.18
2024-03-12T00:13:44.369Z,5.50
2024-03-12T00:16:11.245Z,4.93
2024-03-12T00:18:39.792Z,3.85
2024-03-12T00:21:06.779Z,6.38
2024-03-12T00:23:33.571Z,9.20
2024-03-12T00:26:01.316Z,7.45
2024-03-12T00:28:28.058Z,5.80
2024-03-12T00:30:55.488Z,5.63
2024-03-12T00:33:22.831Z,12.90
2024-03-12T00:35:49.650Z,19.45
2024-03-12T00:38:18.863Z,8.35
2024-03-12T00:40:45.791Z,3.92
2024-03-12T00:43:13.129Z,4.78
2024-03-12T00:45:40.720Z,4.32
2024-03-12T00:48:14.158Z,4.68
2024-03-12T00:50:43.549Z,9.45
2024-03-12T00:53:38.694Z,4.78
2024-03-12T00:56:05.523Z,9.25
2024-03-12T00:58:34.421Z,3.88
2024-03-12T01:01:01.794Z,6.90
2024-03-12T01:05:55.470Z,2.75
2024-03-12T01:08:22.227Z,1.88
2024-03-12T01:10:49.158Z,2.13
2024-03-12T01:13:16.636Z,3.70
2024-03-12T01:15:43.431Z,3.10
2024-03-12T01:18:10.728Z,2.58
2024-03-12T01:23:06.370Z,2.55
2024-03-12T01:25:36.204Z,1.75
2024-03-12T01:28:03.722Z,2.00
2024-03-12T01:32:59.373Z,4.05
2024-03-12T01:35:26.563Z,2.75
2024-03-12T01:37:54.254Z,3.53
2024-03-12T01:40:23.565Z,2.42
2024-03-12T01:43:02.357Z,3.95
2024-03-12T01:45:30.125Z,3.15
2024-03-12T01:47:58.525Z,4.82
2024-03-12T01:50:27.327Z,4.40
2024-03-12T01:53:02.700Z,3.13
2024-03-12T01:55:29.481Z,3.55
2024-03-12T01:57:56.312Z,4.60
2024-03-12T02:00:23.341Z,5.22
2024-03-12T02:02:53.794Z,4.47
2024-03-12T02:05:21.498Z,5.45
2024-03-12T02:07:53.022Z,4.82
2024-03-12T02:10:20.533Z,3.55
2024-03-12T02:12:48.043Z,2.83
2024-03-12T02:15:19.129Z,2.15
2024-03-12T02:17:46.675Z,2.90
2024-03-12T02:20:14.219Z,3.33
2024-03-12T02:22:41.374Z,4.88
2024-03-12T02:25:12.065Z,2.95
2024-03-12T02:27:41.106Z,8.15
2024-03-12T02:30:09.711Z,1.83
2024-03-12T02:32:37.237Z,5.90
2024-03-12T02:37:30.861Z,3.60
2024-03-12T02:39:57.697Z,3.70
2024-03-12T02:42:24.572Z,2.50
2024-03-12T02:44:51.464Z,2.85
2024-03-12T02:47:21.714Z,4.63
2024-03-12T02:49:48.748Z,3.80
2024-03-12T02:52:15.511Z,6.10
2024-03-12T02:54:42.972Z,4.20
2024-03-12T02:57:12.545Z,7.18
2024-03-12T02:59:39.472Z,6.68
2024-03-12T03:02:06.453Z,6.18
2024-03-12T03:04:38.220Z,5.70
2024-03-12T03:07:05.530Z,6.55
2024-03-12T03:09:32.620Z,6.80
2024-03-12T03:12:00.789Z,6.63
2024-03-12T03:14:27.606Z,5.20
2024-03-12T03:16:55.445Z,11.23
2024-03-12T03:19:24.000Z,4.15
2024-03-12T03:21:50.863Z,3.67
2024-03-12T03:24:17.908Z,6.20
2024-03-12T03:26:44.756Z,4.03
2024-03-12T03:29:12.477Z,3.10
2024-03-12T03:31:39.541Z,6.82
2024-03-12T03:34:06.440Z,16.30
2024-03-12T03:36:33.561Z,7.20
2024-03-12T03:39:01.749Z,4.38
2024-03-12T03:41:31.040Z,4.28
2024-03-12T03:43:58.239Z,3.47
2024-03-12T03:46:25.740Z,4.40
2024-03-12T03:48:52.562Z,4.43
2024-03-12T03:51:19.341Z,4.10
2024-03-12T03:53:46.627Z,4.97
2024-03-12T03:56:16.917Z,6.18
2024-03-12T03:58:46.691Z,7.57
2024-03-12T04:01:14.731Z,4.88
2024-03-12T04:03:42.575Z,6.32
2024-03-12T04:06:09.487Z,7.13
2024-03-12T04:08:36.981Z,3.75
2024-03-12T04:13:33.469Z,7.23
2024-03-12T04:16:00.950Z,4.40
2024-03-12T04:18:29.849Z,5.00
2024-03-12T04:20:57.148Z,7.57
2024-03-12T04:23:24.228Z,4.85
2024-03-12T04:25:51.460Z,7.25
2024-03-12T04:28:20.933Z,5.35
2024-03-12T04:30:50.131Z,5.18
2024-03-12T04:33:18.831Z,4.93
2024-03-12T04:35:46.150Z,5.40
2024-03-12T04:38:17.378Z,6.72
2024-03-12T04:40:44.969Z,8.05
2024-03-12T04:45:42.190Z,5.18
2024-03-12T04:48:09.681Z,6.63
2024-03-12T04:50:36.662Z,5.10
2024-03-12T04:53:03.411Z,5.43
2024-03-12T04:55:30.168Z,6.97
2024-03-12T04:57:57.037Z,6.45
2024-03-12T05:00:24.267Z,4.70
2024-03-12T05:02:51.065Z,9.52
2024-03-12T05:05:22.425Z,6.10
2024-03-12T05:07:49.681Z,5.13
2024-03-12T05:10:17.401Z,6.03
2024-03-12T05:12:45.103Z,9.20
2024-03-12T05:15:11.997Z,5.25
2024-03-12T05:17:40.652Z,5.22
2024-03-12T05:20:11.268Z,8.90
2024-03-12T05:22:38.178Z,11.40
2024-03-12T05:25:10.302Z,10.00
2024-03-12T05:27:39.328Z,11.02
2024-03-12T05:30:11.608Z,9.82
2024-03-12T05:32:42.312Z,10.35
2024-03-12T05:35:18.404Z,10.48
2024-03-12T05:38:05.060Z,10.32
2024-03-12T05:41:06.561Z,11.85
2024-03-12T05:43:52.016Z,11.48
2024-03-12T05:46:37.705Z,13.07
2024-03-12T05:49:05.190Z,13.40
2024-03-12T05:51:33.507Z,11.77
2024-03-12T05:54:00.250Z,11.80
2024-03-12T05:56:27.671Z,10.93
2024-03-12T05:58:54.448Z,11.90
2024-03-12T06:01:22.280Z,10.57
2024-03-12T06:03:51.026Z,12.25
2024-03-12T06:06:20.823Z,13.15
2024-03-12T06:08:47.643Z,11.98
2024-03-12T06:11:15.686Z,14.77
2024-03-12T06:13:43.979Z,9.40
2024-03-12T06:16:10.949Z,13.70
2024-03-12T06:18:37.844Z,12.70
2024-03-12T06:21:06.339Z,9.43
2024-03-12T06:23:33.169Z,7.47
2024-03-12T06:25:59.974Z,9.95
2024-03-12T06:30:57.138Z,9.93
2024-03-12T06:33:24.077Z,11.07
2024-03-12T06:35:50.839Z,11.52
2024-03-12T06:38:21.400Z,10.68
2024-03-12T06:40:49.419Z,14.82
2024-03-12T06:43:18.762Z,12.15
2024-03-12T06:45:46.121Z,9.23
2024-03-12T06:50:40.908Z,10.60
2024-03-12T06:53:07.669Z,13.60
2024-03-12T06:55:34.480Z,12.98
2024-03-12T06:58:03.944Z,10.02
2024-03-12T07:00:38.490Z,10.85
2024-03-12T07:03:06.116Z,21.25
2024-03-12T07:08:08.757Z,8.73
2024-03-12T07:10:38.235Z,9.18
2024-03-12T07:13:08.390Z,12.85
2024-03-12T07:15:46.332Z,10.73
2024-03-12T07:18:15.370Z,14.90
2024-03-12T07:20:42.301Z,12.20
2024-03-12T07:23:09.874Z,13.70
2024-03-12T07:25:36.921Z,11.90
2024-03-12T07:28:07.846Z,10.52
2024-03-12T07:30:36.531Z,10.25
2024-03-12T07:33:04.407Z,10.43
2024-03-12T07:35:31.637Z,8.98
2024-03-12T07:37:58.353Z,10.25
2024-03-12T07:40:25.098Z,12.95
2024-03-12T07:42:51.925Z,12.77
2024-03-12T07:45:18.919Z,10.73
2024-03-12T07:47:45.693Z,11.52
2024-03-12T07:50:17.013Z,9.98
2024-03-12T07:52:43.855Z,11.48
2024-03-12T07:55:11.567Z,11.32
2024-03-12T07:57:39.205Z,8.93
2024-03-12T08:00:06.692Z,8.10
2024-03-12T08:02:33.460Z,12.35
2024-03-12T08:05:00.296Z,9.60
2024-03-12T08:07:27.071Z,13.48
2024-03-12T08:09:53.889Z,12.43
2024-03-12T08:12:21.196Z,11.27
2024-03-12T08:17:15.126Z,9.32
2024-03-12T08:19:44.144Z,8.02
2024-03-12T08:22:11.896Z,9.18
2024-03-12T08:24:39.226Z,9.05
2024-03-12T08:27:06.579Z,7.80
2024-03-12T08:32:01.504Z,8.65
2024-03-12T08:34:28.689Z,8.75
2024-03-12T08:36:56.744Z,7.22
2024-03-12T08:39:23.789Z,7.97
2024-03-12T08:41:50.599Z,8.60
2024-03-12T08:44:17.632Z,6.25
2024-03-12T08:46:44.787Z,8.80
2024-03-12T08:49:14.262Z,8.30
2024-03-12T08:51:41.551Z,9.02
2024-03-12T08:54:10.048Z,8.80
2024-03-12T08:56:37.329Z,7.70
2024-03-12T09:04:08.866Z,7.43
2024-03-12T09:06:36.273Z,9.05
2024-03-12T09:11:30.218Z,7.78
2024-03-12T09:13:56.977Z,7.40
2024-03-12T09:16:23.750Z,6.03
2024-03-12T09:18:50.619Z,6.53
2024-03-12T09:21:19.578Z,8.15
2024-03-12T09:23:53.471Z,7.20
2024-03-12T09:26:29.217Z,7.65
2024-03-12T09:28:56.473Z,5.53
2024-03-12T09:31:23.382Z,9.52
2024-03-12T09:33:52.826Z,21.10
2024-03-12T09:36:21.262Z,8.27
2024-03-12T09:38:54.686Z,6.80
2024-03-12T09:41:24.968Z,6.10
2024-03-12T09:43:54.570Z,4.93
2024-03-12T09:46:22.611Z,8.25
2024-03-12T09:48:52.579Z,6.75
2024-03-12T09:51:22.096Z,6.40
2024-03-12T09:53:49.625Z,7.60
2024-03-12T09:56:18.706Z,5.07
2024-03-12T09:58:45.870Z,6.40
2024-03-12T10:01:13.711Z,6.18
2024-03-12T10:03:41.542Z,6.60
2024-03-12T10:06:10.247Z,3.13
2024-03-12T10:08:37.113Z,2.88
2024-03-12T10:11:09.416Z,2.67
2024-03-12T10:13:39.833Z,3.70
2024-03-12T10:16:08.340Z,2.83
2024-03-12T10:18:36.203Z,2.92
2024-03-12T10:21:03.921Z,2.00
2024-03-12T10:23:37.603Z,2.92
2024-03-12T10:26:10.723Z,1.02
2024-03-12T10:28:41.304Z,3.08
2024-03-12T10:31:11.532Z,2.63
2024-03-12T10:33:43.384Z,1.98
2024-03-12T10:36:12.080Z,3.42
2024-03-12T10:38:41.181Z,2.85
2024-03-12T10:41:22.866Z,3.20
2024-03-12T10:43:56.301Z,2.78
2024-03-12T10:46:25.247Z,2.00
2024-03-12T10:48:52.948Z,4.82
2024-03-12T10:51:20.406Z,2.83
2024-03-12T10:53:54.360Z,1.77
2024-03-12T10:56:21.389Z,2.97
2024-03-12T10:58:49.308Z,2.35
2024-03-12T11:01:18.488Z,2.40
2024-03-12T11:03:45.980Z,2.95
2024-03-12T11:06:16.598Z,4.80
2024-03-12T11:08:44.876Z,3.63
2024-03-12T11:11:11.894Z,7.28
2024-03-12T11:13:39.340Z,3.45
2024-03-12T11:16:14.833Z,3.83
2024-03-12T11:18:42.114Z,3.38
2024-03-12T11:21:31.547Z,2.20
2024-03-12T11:23:58.826Z,2.05
2024-03-12T11:29:01.220Z,3.40
2024-03-12T11:31:40.861Z,3.08
2024-03-12T11:34:08.565Z,1.05
2024-03-12T11:36:41.413Z,3.22
2024-03-12T11:39:13.299Z,6.93
2024-03-12T11:41:58.814Z,3.53
2024-03-12T11:44:53.664Z,1.58
2024-03-12T11:47:43.866Z,0.85
2024-03-12T11:50:30.362Z,2.55
2024-03-12T11:53:18.775Z,4.07
2024-03-12T11:58:50.538Z,2.70
2024-03-12T12:01:20.171Z,1.80
2024-03-12T12:03:51.584Z,1.13
2024-03-12T12:06:20.779Z,1.65
2024-03-12T12:08:56.714Z,2.22
2024-03-12T12:11:26.989Z,2.70
2024-03-12T12:13:56.297Z,2.67
2024-03-12T12:16:23.166Z,4.03
2024-03-12T12:18:50.319Z,2.38
2024-03-12T12:21:18.906Z,2.22
2024-03-12T12:23:47.885Z,1.73
2024-03-12T12:26:20.108Z,1.75
2024-03-12T12:28:47.859Z,3.70
2024-03-12T12:31:17.733Z,3.85
2024-03-12T12:33:49.450Z,2.70
2024-03-12T12:36:20.102Z,7.50
2024-03-12T12:38:52.159Z,1.77
2024-03-12T12:41:25.630Z,2.28
2024-03-12T12:43:55.760Z,3.92
2024-03-12T12:46:29.091Z,2.70
2024-03-12T12:48:55.960Z,3.47
2024-03-12T12:51:26.016Z,2.55
2024-03-12T12:53:56.361Z,2.28
2024-03-12T12:56:23.914Z,5.78
2024-03-12T12:58:52.745Z,5.72
2024-03-12T13:01:25.705Z,3.25
2024-03-12T13:03:54.967Z,2.13
2024-03-12T13:06:23.337Z,3.40
2024-03-12T13:08:57.751Z,1.45
2024-03-12T13:11:30.072Z,1.58
2024-03-12T13:13:56.855Z,2.03
2024-03-12T13:16:24.991Z,1.63
2024-03-12T13:18:58.994Z,2.17
2024-03-12T13:21:26.787Z,0.85
2024-03-12T13:23:54.446Z,2.28
2024-03-12T13:26:23.896Z,1.75
2024-03-12T13:28:58.044Z,3.42
2024-03-12T13:31:25.071Z,3.10
2024-03-12T13:33:54.614Z,1.10
2024-03-12T13:36:23.306Z,1.55
2024-03-12T13:38:56.876Z,2.55
2024-03-12T13:41:25.915Z,4.75
2024-03-12T13:43:53.402Z,3.28
2024-03-12T13:48:48.112Z,1.80
2024-03-12T13:53:43.248Z,1.67
2024-03-12T13:56:12.762Z,3.38
2024-03-12T13:58:41.806Z,2.67
2024-03-12T14:01:12.735Z,1.77
2024-03-12T14:03:41.265Z,1.00
2024-03-12T14:06:10.291Z,1.42
2024-03-12T14:08:37.529Z,0.75
2024-03-12T14:11:04.716Z,1.50
2024-03-12T14:13:32.997Z,2.00
2024-03-12T14:16:00.356Z,3.35
2024-03-12T14:20:55.879Z,9.13
2024-03-12T14:23:23.100Z,1.63
2024-03-12T14:25:50.342Z,3.63
2024-03-12T14:30:45.956Z,1.67
2024-03-12T14:33:13.364Z,2.63
2024-03-12T14:38:07.318Z,1.30
2024-03-12T14:40:34.153Z,3.88
2024-03-12T14:43:01.729Z,2.05
2024-03-12T14:45:30.837Z,1.10
2024-03-12T14:47:57.965Z,1.35
2024-03-12T14:50:25.001Z,2.05
2024-03-12T14:52:52.021Z,2.28
2024-03-12T14:55:18.976Z,4.20
2024-03-12T14:57:45.833Z,2.50
2024-03-12T15:00:17.506Z,2.70
2024-03-12T15:02:44.417Z,4.05
2024-03-12T15:05:13.991Z,4.85
2024-03-12T15:07:44.236Z,2.50
2024-03-12T15:10:11.946Z,2.63
2024-03-12T15:12:42.629Z,1.83
2024-03-12T15:15:13.821Z,1.83
2024-03-12T15:17:42.228Z,4.40
2024-03-12T15:20:17.188Z,2.22
2024-03-12T15:22:46.580Z,1.30
2024-03-12T15:25:14.205Z,2.47
2024-03-12T15:27:43.083Z,6.70
2024-03-12T15:30:10.921Z,2.38
2024-03-12T15:32:39.319Z,3.10
2024-03-12T15:35:07.196Z,2.30
2024-03-12T15:37:34.055Z,3.13
2024-03-12T15:40:01.384Z,3.03
2024-03-12T15:42:29.266Z,1.60
2024-03-12T15:44:56.786Z,2.53
2024-03-12T15:47:23.904Z,2.53
2024-03-12T15:49:55.681Z,4.88
2024-03-12T15:52:22.511Z,6.35
2024-03-12T15:54:50.162Z,3.20
2024-03-12T15:57:18.343Z,4.68
2024-03-12T15:59:49.331Z,2.85
2024-03-12T16:02:16.547Z,3.03
2024-03-12T16:04:43.583Z,2.47
2024-03-12T16:07:10.405Z,2.33
2024-03-12T16:09:37.355Z,2.78
2024-03-12T16:12:06.234Z,2.30
2024-03-12T16:14:33.294Z,2.75
2024-03-12T16:17:00.113Z,3.05
2024-03-12T16:19:31.048Z,7.03
2024-03-12T16:21:58.643Z,6.57
2024-03-12T16:24:28.590Z,3.03
2024-03-12T16:26:57.364Z,4.30
2024-03-12T16:29:25.002Z,3.83
2024-03-12T16:31:52.289Z,3.35
2024-03-12T16:34:19.646Z,3.45
2024-03-12T16:36:46.655Z,4.88
2024-03-12T16:39:14.408Z,7.18
2024-03-12T16:41:42.039Z,3.63
2024-03-12T16:44:08.906Z,6.72
2024-03-12T16:46:35.737Z,4.28
2024-03-12T16:49:04.823Z,6.53
2024-03-12T16:51:35.059Z,5.28
2024-03-12T16:54:03.375Z,7.65
2024-03-12T16:56:33.553Z,5.88
2024-03-12T16:59:01.441Z,5.65
2024-03-12T17:01:29.043Z,6.30
2024-03-12T17:03:56.294Z,6.10
2024-03-12T17:06:23.424Z,10.45
2024-03-12T17:08:50.524Z,8.00
2024-03-12T17:11:17.599Z,4.32
2024-03-12T17:13:44.561Z,8.45
2024-03-12T17:16:14.109Z,8.27
2024-03-12T17:18:41.814Z,7.75
2024-03-12T17:21:10.912Z,7.85
2024-03-12T17:23:37.926Z,7.07
2024-03-12T17:26:05.426Z,6.50
2024-03-12T17:28:34.193Z,5.22
2024-03-12T17:31:01.370Z,4.47
2024-03-12T17:33:28.535Z,4.15
2024-03-12T17:35:56.436Z,4.15
2024-03-12T17:38:26.703Z,5.25
2024-03-12T17:40:59.344Z,6.30
2024-03-12T17:43:27.194Z,4.72
2024-03-12T17:45:54.573Z,4.00
2024-03-12T17:50:48.479Z,7.18
2024-03-12T17:53:17.353Z,4.47
2024-03-12T17:55:47.859Z,5.53
2024-03-12T17:58:17.350Z,3.42
2024-03-12T18:00:45.151Z,8.20
2024-03-12T18:03:12.420Z,6.97
2024-03-12T18:05:39.303Z,8.00
2024-03-12T18:08:10.479Z,6.45
2024-03-12T18:10:38.089Z,6.20
2024-03-12T18:13:05.118Z,5.20
2024-03-12T18:15:31.943Z,9.18
2024-03-12T18:17:59.637Z,8.65
2024-03-12T18:20:31.214Z,6.72
2024-03-12T18:22:58.621Z,7.45
2024-03-12T18:25:25.660Z,7.63
2024-03-12T18:27:56.500Z,8.77
2024-03-12T18:30:23.558Z,11.77
2024-03-12T18:32:50.708Z,10.43
2024-03-12T18:35:19.737Z,13.57
2024-03-12T18:37:46.693Z,13.32
2024-03-12T18:40:18.867Z,13.40
2024-03-12T18:42:47.288Z,10.25
2024-03-12T18:45:18.788Z,9.18
2024-03-12T18:47:48.904Z,12.48
2024-03-12T18:50:16.204Z,15.73
2024-03-12T18:52:45.541Z,13.20
2024-03-12T18:55:13.074Z,13.18
2024-03-12T18:57:41.228Z,11.80
2024-03-12T19:00:18.968Z,13.32
2024-03-12T19:02:51.922Z,13.73
2024-03-12T19:05:22.945Z,13.98
2024-03-12T19:07:51.200Z,14.07
2024-03-12T19:10:19.742Z,13.77
2024-03-12T19:12:47.023Z,11.30
2024-03-12T19:15:22.666Z,10.00
2024-03-12T19:17:51.507Z,8.05
2024-03-12T19:20:19.761Z,8.77
2024-03-12T19:22:51.596Z,9.18
2024-03-12T19:25:20.017Z,10.15
2024-03-12T19:27:49.509Z,7.80
2024-03-12T19:30:20.095Z,8.98
2024-03-12T19:32:53.908Z,6.40
2024-03-12T19:35:22.449Z,9.57
2024-03-12T19:37:50.137Z,8.07
2024-03-12T19:40:17.975Z,6.05
2024-03-12T19:42:46.478Z,8.18
2024-03-12T19:45:18.791Z,7.47
2024-03-12T19:47:50.048Z,7.20
2024-03-12T19:50:21.050Z,6.90
2024-03-12T19:52:48.414Z,7.03
2024-03-12T19:57:56.124Z,6.88
2024-03-12T20:00:31.065Z,6.07
2024-03-12T20:02:58.884Z,16.27
2024-03-12T20:05:26.761Z,12.63
2024-03-12T20:07:55.837Z,11.85
2024-03-12T20:10:23.023Z,10.00
2024-03-12T20:12:53.909Z,10.00
2024-03-12T20:15:24.114Z,8.80
2024-03-12T20:17:51.955Z,11.93
2024-03-12T20:20:19.027Z,9.50
2024-03-12T20:22:52.892Z,9.25
2024-03-12T20:25:21.076Z,6.85
2024-03-12T20:27:58.681Z,9.75
2024-03-12T20:30:30.794Z,8.18
2024-03-12T20:32:59.527Z,9.27
2024-03-12T20:35:28.520Z,6.88
2024-03-12T20:37:56.244Z,8.07
2024-03-12T20:40:26.038Z,7.15
2024-03-12T20:42:53.722Z,6.80
2024-03-12T20:45:22.476Z,9.07
2024-03-12T20:47:49.834Z,8.00
2024-03-12T20:52:47.418Z,9.48
2024-03-12T20:55:17.808Z,9.98
2024-03-12T20:57:48.228Z,10.45
2024-03-12T21:00:24.710Z,8.20
2024-03-12T21:02:54.868Z,8.07
2024-03-12T21:05:22.239Z,10.00
2024-03-12T21:10:16.045Z,10.73
2024-03-12T21:12:52.823Z,6.45
2024-03-12T21:15:20.301Z,6.20
2024-03-12T21:17:47.620Z,6.85
2024-03-12T21:20:22.717Z,7.47
2024-03-12T21:22:50.586Z,7.18
2024-03-12T21:25:18.540Z,6.03
2024-03-12T21:27:46.124Z,6.63
2024-03-12T21:30:15.545Z,7.32
2024-03-12T21:32:42.597Z,6.93
2024-03-12T21:35:10.297Z,11.27
2024-03-12T21:37:40.068Z,10.07
2024-03-12T21:40:12.437Z,7.63
2024-03-12T21:42:40.118Z,6.60
2024-03-12T21:47:34.097Z,6.25
2024-03-12T21:50:01.388Z,6.13
2024-03-12T21:52:28.825Z,8.50
2024-03-12T21:57:23.082Z,6.05
2024-03-12T21:59:49.831Z,8.00
2024-03-12T22:02:16.547Z,8.35
2024-03-12T22:04:43.279Z,9.45
2024-03-12T22:07:10.188Z,9.38
2024-03-12T22:09:37.021Z,12.55
2024-03-12T22:12:04.061Z,10.70
2024-03-12T22:14:30.928Z,17.60
2024-03-12T22:16:57.686Z,13.50
2024-03-12T22:19:24.448Z,18.55
2024-03-12T22:21:51.466Z,15.13
2024-03-12T22:24:19.168Z,10.52
2024-03-12T22:26:53.119Z,10.38
2024-03-12T22:29:19.897Z,8.57
2024-03-12T22:31:46.638Z,6.45
2024-03-12T22:34:14.105Z,9.25
2024-03-12T22:36:41.809Z,7.00
2024-03-12T22:39:09.976Z,18.27
2024-03-12T22:41:37.258Z,15.40
2024-03-12T22:44:05.648Z,10.02
2024-03-12T22:46:32.565Z,13.00
2024-03-12T22:48:59.481Z,16.70
2024-03-12T22:51:27.430Z,14.40
2024-03-12T22:53:54.405Z,11.25
2024-03-12T22:56:21.557Z,9.63
2024-03-12T22:58:48.809Z,6.93
2024-03-12T23:01:17.849Z,8.68
2024-03-12T23:03:47.642Z,9.30
2024-03-12T23:06:14.999Z,8.90
2024-03-12T23:11:08.783Z,6.70
2024-03-12T23:13:36.963Z,10.88
2024-03-12T23:16:03.943Z,6.50
2024-03-12T23:18:31.304Z,7.32
2024-03-12T23:23:25.115Z,11.52
2024-03-12T23:25:52.561Z,5.03
2024-03-12T23:28:22.304Z,5.43
2024-03-12T23:30:49.582Z,6.00
2024-03-12T23:33:16.453Z,6.10
2024-03-12T23:35:43.627Z,4.57
2024-03-12T23:38:12.704Z,8.40
2024-03-12T23:40:39.968Z,4.60
2024-03-12T23:43:06.873Z,3.88
2024-03-12T23:45:33.946Z,6.40
2024-03-12T23:48:03.370Z,5.30
2024-03-12T23:50:30.654Z,4.50
2024-03-12T23:52:57.693Z,4.05
2024-03-12T23:55:25.581Z,4.72
2024-03-12T23:57:54.349Z,5.47
